sensor_id;sensor_type;location;lat;lon;timestamp;P1;durP1;ratioP1;P2;durP2;ratioP2
64282;SDS011;50497;50.720;-2.084;2022-11-20T00:00:48;13.85;;;5.45;;
64282;SDS011;50497;50.720;-2.084;2022-11-20T00:03:14;13.23;;;5.13;;
64282;SDS011;50497;50.720;-2.084;2022-11-20T00:05:40;14.23;;;5.40;;
64282;SDS011;50497;50.720;-2.084;2022-11-20T00:08:05;11.02;;;4.60;;
64282;SDS011;50497;50.720;-2.084;2022-11-20T00:10:31;10.13;;;4.60;;
64282;SDS011;50497;50.720;-2.084;2022-11-20T00:13:00;9.15;;;2.85;;
64282;SDS011;50497;50.720;-2.084;2022-11-20T00:15:25;10.98;;;4.35;;
64282;SDS011;50497;50.720;-2.084;2022-11-20T00:17:50;9.85;;;3.80;;
64282;SDS011;50497;50.720;-2.084;2022-11-20T00:20:16;9.50;;;3.53;;
64282;SDS011;50497;50.720;-2.084;2022-11-20T00:22:42;9.90;;;3.72;;
64282;SDS011;50497;50.720;-2.084;2022-11-20T00:25:07;6.35;;;2.25;;
64282;SDS011;50497;50.720;-2.084;2022-11-20T00:27:33;6.93;;;2.90;;
64282;SDS011;50497;50.720;-2.084;2022-11-20T00:29:59;6.15;;;1.60;;
64282;SDS011;50497;50.720;-2.084;2022-11-20T00:32:24;7.95;;;2.20;;
64282;SDS011;50497;50.720;-2.084;2022-11-20T00:34:50;4.68;;;1.63;;
64282;SDS011;50497;50.720;-2.084;2022-11-20T00:37:15;10.68;;;2.60;;
64282;SDS011;50497;50.720;-2.084;2022-11-20T00:39:41;6.97;;;2.25;;
64282;SDS011;50497;50.720;-2.084;2022-11-20T00:42:06;8.73;;;2.17;;
64282;SDS011;50497;50.720;-2.084;2022-11-20T00:44:31;6.45;;;2.22;;
64282;SDS011;50497;50.720;-2.084;2022-11-20T00:46:57;9.10;;;2.05;;
64282;SDS011;50497;50.720;-2.084;2022-11-20T00:49:22;6.43;;;1.55;;
64282;SDS011;50497;50.720;-2.084;2022-11-20T00:51:48;6.53;;;1.73;;
64282;SDS011;50497;50.720;-2.084;2022-11-20T00:54:13;4.63;;;1.40;;
64282;SDS011;50497;50.720;-2.084;2022-11-20T00:56:38;5.15;;;1.55;;
64282;SDS011;50497;50.720;-2.084;2022-11-20T00:59:05;8.73;;;1.90;;
64282;SDS011;50497;50.720;-2.084;2022-11-20T01:01:30;7.63;;;1.90;;
64282;SDS011;50497;50.720;-2.084;2022-11-20T01:03:57;8.70;;;2.60;;
64282;SDS011;50497;50.720;-2.084;2022-11-20T01:06:25;7.72;;;1.75;;
64282;SDS011;50497;50.720;-2.084;2022-11-20T01:08:53;9.02;;;2.00;;
64282;SDS011;50497;50.720;-2.084;2022-11-20T01:11:25;10.18;;;1.80;;
64282;SDS011;50497;50.720;-2.084;2022-11-20T01:13:53;8.98;;;2.42;;
64282;SDS011;50497;50.720;-2.084;2022-11-20T01:16:23;9.23;;;2.03;;
64282;SDS011;50497;50.720;-2.084;2022-11-20T01:18:51;10.70;;;2.28;;
64282;SDS011;50497;50.720;-2.084;2022-11-20T01:21:20;11.65;;;4.45;;
64282;SDS011;50497;50.720;-2.084;2022-11-20T01:23:47;7.32;;;2.03;;
64282;SDS011;50497;50.720;-2.084;2022-11-20T01:26:18;8.25;;;2.55;;
64282;SDS011;50497;50.720;-2.084;2022-11-20T01:28:45;5.63;;;2.10;;
64282;SDS011;50497;50.720;-2.084;2022-11-20T01:31:12;8.48;;;2.78;;
64282;SDS011;50497;50.720;-2.084;2022-11-20T01:33:43;12.05;;;3.88;;
64282;SDS011;50497;50.720;-2.084;2022-11-20T01:36:10;9.43;;;2.42;;
64282;SDS011;50497;50.720;-2.084;2022-11-20T01:38:36;9.07;;;2.33;;
64282;SDS011;50497;50.720;-2.084;2022-11-20T01:41:02;7.95;;;1.83;;
64282;SDS011;50497;50.720;-2.084;2022-11-20T01:43:28;8.52;;;1.80;;
64282;SDS011;50497;50.720;-2.084;2022-11-20T01:51:52;7.18;;;1.50;;
64282;SDS011;50497;50.720;-2.084;2022-11-20T01:54:07;6.95;;;2.13;;
64282;SDS011;50497;50.720;-2.084;2022-11-20T01:56:38;6.15;;;1.42;;
64282;SDS011;50497;50.720;-2.084;2022-11-20T01:59:07;6.97;;;2.15;;
64282;SDS011;50497;50.720;-2.084;2022-11-20T02:01:35;8.73;;;1.70;;
64282;SDS011;50497;50.720;-2.084;2022-11-20T02:04:01;11.85;;;3.97;;
64282;SDS011;50497;50.720;-2.084;2022-11-20T02:09:14;9.35;;;2.10;;
64282;SDS011;50497;50.720;-2.084;2022-11-20T02:11:40;7.57;;;1.77;;
64282;SDS011;50497;50.720;-2.084;2022-11-20T02:14:06;8.13;;;1.60;;
64282;SDS011;50497;50.720;-2.084;2022-11-20T02:16:36;8.55;;;1.80;;
64282;SDS011;50497;50.720;-2.084;2022-11-20T02:21:35;13.15;;;2.38;;
64282;SDS011;50497;50.720;-2.084;2022-11-20T02:24:07;7.97;;;2.00;;
64282;SDS011;50497;50.720;-2.084;2022-11-20T02:26:53;9.13;;;1.73;;
64282;SDS011;50497;50.720;-2.084;2022-11-20T02:29:35;7.07;;;1.98;;
64282;SDS011;50497;50.720;-2.084;2022-11-20T02:32:05;8.57;;;1.98;;
64282;SDS011;50497;50.720;-2.084;2022-11-20T02:34:31;6.47;;;1.55;;
64282;SDS011;50497;50.720;-2.084;2022-11-20T02:36:57;6.53;;;1.70;;
64282;SDS011;50497;50.720;-2.084;2022-11-20T02:39:24;9.60;;;2.08;;
64282;SDS011;50497;50.720;-2.084;2022-11-20T02:41:52;7.70;;;1.35;;
64282;SDS011;50497;50.720;-2.084;2022-11-20T02:44:19;7.60;;;1.70;;
64282;SDS011;50497;50.720;-2.084;2022-11-20T02:46:45;7.07;;;1.42;;
64282;SDS011;50497;50.720;-2.084;2022-11-20T02:49:11;12.68;;;3.03;;
64282;SDS011;50497;50.720;-2.084;2022-11-20T02:51:36;6.07;;;1.48;;
64282;SDS011;50497;50.720;-2.084;2022-11-20T02:54:02;5.10;;;1.05;;
64282;SDS011;50497;50.720;-2.084;2022-11-20T02:56:27;7.28;;;1.67;;
64282;SDS011;50497;50.720;-2.084;2022-11-20T02:58:53;6.38;;;1.27;;
64282;SDS011;50497;50.720;-2.084;2022-11-20T03:01:19;3.53;;;1.05;;
64282;SDS011;50497;50.720;-2.084;2022-11-20T03:03:44;3.03;;;1.10;;
64282;SDS011;50497;50.720;-2.084;2022-11-20T03:06:10;5.22;;;1.17;;
64282;SDS011;50497;50.720;-2.084;2022-11-20T03:08:35;6.55;;;1.42;;
64282;SDS011;50497;50.720;-2.084;2022-11-20T03:11:05;5.60;;;1.15;;
64282;SDS011;50497;50.720;-2.084;2022-11-20T03:13:32;5.00;;;1.15;;
64282;SDS011;50497;50.720;-2.084;2022-11-20T03:15:57;4.50;;;1.23;;
64282;SDS011;50497;50.720;-2.084;2022-11-20T03:18:23;2.25;;;1.00;;
64282;SDS011;50497;50.720;-2.084;2022-11-20T03:20:49;5.78;;;1.13;;
64282;SDS011;50497;50.720;-2.084;2022-11-20T03:23:14;5.68;;;1.80;;
64282;SDS011;50497;50.720;-2.084;2022-11-20T03:25:39;5.13;;;1.02;;
64282;SDS011;50497;50.720;-2.084;2022-11-20T03:28:05;5.50;;;1.30;;
64282;SDS011;50497;50.720;-2.084;2022-11-20T03:30:30;5.95;;;1.60;;
64282;SDS011;50497;50.720;-2.084;2022-11-20T03:32:56;7.03;;;2.03;;
64282;SDS011;50497;50.720;-2.084;2022-11-20T03:35:21;7.75;;;2.33;;
64282;SDS011;50497;50.720;-2.084;2022-11-20T03:37:47;4.35;;;1.40;;
64282;SDS011;50497;50.720;-2.084;2022-11-20T03:40:13;6.10;;;1.80;;
64282;SDS011;50497;50.720;-2.084;2022-11-20T03:42:38;4.25;;;1.00;;
64282;SDS011;50497;50.720;-2.084;2022-11-20T03:45:10;5.88;;;1.27;;
64282;SDS011;50497;50.720;-2.084;2022-11-20T03:47:36;4.35;;;0.90;;
64282;SDS011;50497;50.720;-2.084;2022-11-20T03:50:02;7.30;;;1.20;;
64282;SDS011;50497;50.720;-2.084;2022-11-20T03:52:28;4.18;;;1.00;;
64282;SDS011;50497;50.720;-2.084;2022-11-20T03:54:53;4.38;;;0.90;;
64282;SDS011;50497;50.720;-2.084;2022-11-20T03:57:18;4.78;;;0.90;;
64282;SDS011;50497;50.720;-2.084;2022-11-20T03:59:44;4.55;;;1.27;;
64282;SDS011;50497;50.720;-2.084;2022-11-20T04:02:09;6.15;;;1.77;;
64282;SDS011;50497;50.720;-2.084;2022-11-20T04:04:35;3.75;;;1.00;;
64282;SDS011;50497;50.720;-2.084;2022-11-20T04:07:00;5.93;;;1.42;;
64282;SDS011;50497;50.720;-2.084;2022-11-20T04:09:26;3.90;;;1.42;;
64282;SDS011;50497;50.720;-2.084;2022-11-20T04:11:51;6.38;;;1.30;;
64282;SDS011;50497;50.720;-2.084;2022-11-20T04:14:16;2.92;;;1.00;;
64282;SDS011;50497;50.720;-2.084;2022-11-20T04:16:42;5.43;;;1.30;;
64282;SDS011;50497;50.720;-2.084;2022-11-20T04:19:12;4.28;;;0.95;;
64282;SDS011;50497;50.720;-2.084;2022-11-20T04:21:40;4.05;;;0.88;;
64282;SDS011;50497;50.720;-2.084;2022-11-20T04:26:32;6.18;;;1.08;;
64282;SDS011;50497;50.720;-2.084;2022-11-20T04:28:58;4.63;;;1.10;;
64282;SDS011;50497;50.720;-2.084;2022-11-20T04:31:25;5.10;;;1.13;;
64282;SDS011;50497;50.720;-2.084;2022-11-20T04:33:52;7.82;;;1.20;;
64282;SDS011;50497;50.720;-2.084;2022-11-20T04:38:45;2.63;;;0.85;;
64282;SDS011;50497;50.720;-2.084;2022-11-20T04:41:17;6.13;;;1.00;;
64282;SDS011;50497;50.720;-2.084;2022-11-20T04:43:51;5.50;;;1.08;;
64282;SDS011;50497;50.720;-2.084;2022-11-20T04:46:23;3.15;;;0.60;;
64282;SDS011;50497;50.720;-2.084;2022-11-20T04:48:50;4.32;;;0.70;;
64282;SDS011;50497;50.720;-2.084;2022-11-20T04:51:15;2.03;;;0.63;;
64282;SDS011;50497;50.720;-2.084;2022-11-20T04:53:41;3.22;;;0.70;;
64282;SDS011;50497;50.720;-2.084;2022-11-20T04:56:07;4.78;;;0.90;;
64282;SDS011;50497;50.720;-2.084;2022-11-20T04:58:34;2.47;;;0.90;;
64282;SDS011;50497;50.720;-2.084;2022-11-20T05:01:02;1.80;;;0.70;;
64282;SDS011;50497;50.720;-2.084;2022-11-20T05:03:37;1.88;;;0.57;;
64282;SDS011;50497;50.720;-2.084;2022-11-20T05:06:03;1.65;;;0.68;;
64282;SDS011;50497;50.720;-2.084;2022-11-20T05:08:30;3.40;;;0.70;;
64282;SDS011;50497;50.720;-2.084;2022-11-20T05:13:26;2.33;;;0.77;;
64282;SDS011;50497;50.720;-2.084;2022-11-20T05:15:51;2.53;;;0.95;;
64282;SDS011;50497;50.720;-2.084;2022-11-20T05:18:17;3.10;;;0.90;;
64282;SDS011;50497;50.720;-2.084;2022-11-20T05:20:42;3.22;;;0.80;;
64282;SDS011;50497;50.720;-2.084;2022-11-20T05:23:08;6.50;;;1.08;;
64282;SDS011;50497;50.720;-2.084;2022-11-20T05:25:34;4.53;;;1.25;;
64282;SDS011;50497;50.720;-2.084;2022-11-20T05:27:59;2.92;;;1.00;;
64282;SDS011;50497;50.720;-2.084;2022-11-20T05:30:24;7.22;;;1.30;;
64282;SDS011;50497;50.720;-2.084;2022-11-20T05:32:50;2.85;;;1.05;;
64282;SDS011;50497;50.720;-2.084;2022-11-20T05:35:15;3.13;;;1.00;;
64282;SDS011;50497;50.720;-2.084;2022-11-20T05:37:41;5.03;;;1.27;;
64282;SDS011;50497;50.720;-2.084;2022-11-20T05:40:06;5.45;;;1.27;;
64282;SDS011;50497;50.720;-2.084;2022-11-20T05:42:32;4.70;;;1.30;;
64282;SDS011;50497;50.720;-2.084;2022-11-20T05:44:58;8.60;;;1.50;;
64282;SDS011;50497;50.720;-2.084;2022-11-20T05:47:25;6.28;;;1.30;;
64282;SDS011;50497;50.720;-2.084;2022-11-20T05:52:17;10.25;;;1.55;;
64282;SDS011;50497;50.720;-2.084;2022-11-20T05:54:42;8.02;;;1.40;;
64282;SDS011;50497;50.720;-2.084;2022-11-20T05:57:08;8.02;;;1.50;;
64282;SDS011;50497;50.720;-2.084;2022-11-20T05:59:33;11.32;;;1.50;;
64282;SDS011;50497;50.720;-2.084;2022-11-20T06:01:59;6.57;;;1.60;;
64282;SDS011;50497;50.720;-2.084;2022-11-20T06:04:24;9.65;;;1.50;;
64282;SDS011;50497;50.720;-2.084;2022-11-20T06:06:49;10.70;;;1.50;;
64282;SDS011;50497;50.720;-2.084;2022-11-20T06:09:15;9.85;;;2.08;;
64282;SDS011;50497;50.720;-2.084;2022-11-20T06:11:40;6.68;;;1.52;;
64282;SDS011;50497;50.720;-2.084;2022-11-20T06:14:06;14.38;;;1.90;;
64282;SDS011;50497;50.720;-2.084;2022-11-20T06:16:31;10.65;;;1.60;;
64282;SDS011;50497;50.720;-2.084;2022-11-20T06:18:56;13.73;;;1.90;;
64282;SDS011;50497;50.720;-2.084;2022-11-20T06:21:22;10.07;;;1.90;;
64282;SDS011;50497;50.720;-2.084;2022-11-20T06:23:48;10.65;;;1.90;;
64282;SDS011;50497;50.720;-2.084;2022-11-20T06:26:19;10.57;;;2.10;;
64282;SDS011;50497;50.720;-2.084;2022-11-20T06:28:49;14.40;;;1.80;;
64282;SDS011;50497;50.720;-2.084;2022-11-20T06:33:43;12.43;;;2.30;;
64282;SDS011;50497;50.720;-2.084;2022-11-20T06:36:09;11.50;;;1.90;;
64282;SDS011;50497;50.720;-2.084;2022-11-20T06:38:36;14.30;;;2.03;;
64282;SDS011;50497;50.720;-2.084;2022-11-20T06:41:04;17.33;;;2.60;;
64282;SDS011;50497;50.720;-2.084;2022-11-20T06:43:31;13.82;;;2.03;;
64282;SDS011;50497;50.720;-2.084;2022-11-20T06:45:57;13.15;;;2.08;;
64282;SDS011;50497;50.720;-2.084;2022-11-20T06:48:23;17.35;;;2.63;;
64282;SDS011;50497;50.720;-2.084;2022-11-20T06:50:51;11.55;;;2.35;;
64282;SDS011;50497;50.720;-2.084;2022-11-20T06:53:16;16.50;;;2.53;;
64282;SDS011;50497;50.720;-2.084;2022-11-20T06:55:45;11.80;;;2.17;;
64282;SDS011;50497;50.720;-2.084;2022-11-20T06:58:11;17.95;;;2.40;;
64282;SDS011;50497;50.720;-2.084;2022-11-20T07:00:38;17.60;;;2.40;;
64282;SDS011;50497;50.720;-2.084;2022-11-20T07:03:04;14.38;;;2.47;;
64282;SDS011;50497;50.720;-2.084;2022-11-20T07:05:30;12.75;;;2.30;;
64282;SDS011;50497;50.720;-2.084;2022-11-20T07:07:58;14.45;;;2.60;;
64282;SDS011;50497;50.720;-2.084;2022-11-20T07:10:24;18.58;;;3.10;;
64282;SDS011;50497;50.720;-2.084;2022-11-20T07:12:51;17.30;;;2.65;;
64282;SDS011;50497;50.720;-2.084;2022-11-20T07:15:17;15.52;;;2.63;;
64282;SDS011;50497;50.720;-2.084;2022-11-20T07:17:44;14.57;;;2.65;;
64282;SDS011;50497;50.720;-2.084;2022-11-20T07:20:09;17.52;;;2.83;;
64282;SDS011;50497;50.720;-2.084;2022-11-20T07:22:35;15.63;;;2.20;;
64282;SDS011;50497;50.720;-2.084;2022-11-20T07:25:00;14.52;;;2.20;;
64282;SDS011;50497;50.720;-2.084;2022-11-20T07:27:26;14.82;;;2.50;;
64282;SDS011;50497;50.720;-2.084;2022-11-20T07:29:52;26.85;;;3.78;;
64282;SDS011;50497;50.720;-2.084;2022-11-20T07:32:18;14.57;;;2.65;;
64282;SDS011;50497;50.720;-2.084;2022-11-20T07:34:44;20.20;;;2.53;;
64282;SDS011;50497;50.720;-2.084;2022-11-20T07:37:09;19.40;;;3.10;;
64282;SDS011;50497;50.720;-2.084;2022-11-20T07:39:35;17.63;;;2.40;;
64282;SDS011;50497;50.720;-2.084;2022-11-20T07:42:00;20.45;;;2.53;;
64282;SDS011;50497;50.720;-2.084;2022-11-20T07:44:25;10.95;;;2.40;;
64282;SDS011;50497;50.720;-2.084;2022-11-20T07:46:51;16.25;;;2.10;;
64282;SDS011;50497;50.720;-2.084;2022-11-20T07:49:17;16.90;;;2.10;;
64282;SDS011;50497;50.720;-2.084;2022-11-20T07:51:42;14.55;;;2.25;;
64282;SDS011;50497;50.720;-2.084;2022-11-20T07:54:07;14.88;;;2.25;;
64282;SDS011;50497;50.720;-2.084;2022-11-20T07:56:33;13.98;;;2.25;;
64282;SDS011;50497;50.720;-2.084;2022-11-20T07:58:58;12.25;;;2.40;;
64282;SDS011;50497;50.720;-2.084;2022-11-20T08:01:23;14.07;;;2.17;;
64282;SDS011;50497;50.720;-2.084;2022-11-20T08:03:49;17.23;;;2.47;;
64282;SDS011;50497;50.720;-2.084;2022-11-20T08:06:14;16.58;;;2.80;;
64282;SDS011;50497;50.720;-2.084;2022-11-20T08:08:40;14.32;;;2.58;;
64282;SDS011;50497;50.720;-2.084;2022-11-20T08:11:06;13.43;;;2.65;;
64282;SDS011;50497;50.720;-2.084;2022-11-20T08:13:50;16.27;;;3.17;;
64282;SDS011;50497;50.720;-2.084;2022-11-20T08:16:34;17.88;;;2.47;;
64282;SDS011;50497;50.720;-2.084;2022-11-20T08:18:59;13.98;;;2.47;;
64282;SDS011;50497;50.720;-2.084;2022-11-20T08:21:25;12.18;;;2.50;;
64282;SDS011;50497;50.720;-2.084;2022-11-20T08:23:50;17.45;;;2.55;;
64282;SDS011;50497;50.720;-2.084;2022-11-20T08:26:16;13.55;;;2.60;;
64282;SDS011;50497;50.720;-2.084;2022-11-20T08:28:42;17.98;;;2.78;;
64282;SDS011;50497;50.720;-2.084;2022-11-20T08:33:34;13.88;;;2.38;;
64282;SDS011;50497;50.720;-2.084;2022-11-20T08:36:00;13.38;;;2.40;;
64282;SDS011;50497;50.720;-2.084;2022-11-20T08:38:28;12.18;;;2.30;;
64282;SDS011;50497;50.720;-2.084;2022-11-20T08:40:58;15.25;;;2.88;;
64282;SDS011;50497;50.720;-2.084;2022-11-20T08:43:44;12.65;;;2.50;;
64282;SDS011;50497;50.720;-2.084;2022-11-20T08:46:10;17.70;;;2.88;;
64282;SDS011;50497;50.720;-2.084;2022-11-20T08:48:36;15.10;;;2.70;;
64282;SDS011;50497;50.720;-2.084;2022-11-20T08:51:02;19.40;;;2.65;;
64282;SDS011;50497;50.720;-2.084;2022-11-20T08:53:28;15.55;;;2.55;;
64282;SDS011;50497;50.720;-2.084;2022-11-20T08:55:53;17.85;;;2.50;;
64282;SDS011;50497;50.720;-2.084;2022-11-20T08:58:19;10.85;;;2.20;;
64282;SDS011;50497;50.720;-2.084;2022-11-20T09:00:45;17.25;;;3.90;;
64282;SDS011;50497;50.720;-2.084;2022-11-20T09:03:10;13.00;;;2.70;;
64282;SDS011;50497;50.720;-2.084;2022-11-20T09:05:38;13.73;;;2.40;;
64282;SDS011;50497;50.720;-2.084;2022-11-20T09:08:04;14.18;;;2.38;;
64282;SDS011;50497;50.720;-2.084;2022-11-20T09:10:29;20.60;;;4.45;;
64282;SDS011;50497;50.720;-2.084;2022-11-20T09:12:55;12.10;;;2.33;;
64282;SDS011;50497;50.720;-2.084;2022-11-20T09:15:20;19.52;;;2.92;;
64282;SDS011;50497;50.720;-2.084;2022-11-20T09:17:53;16.05;;;2.35;;
64282;SDS011;50497;50.720;-2.084;2022-11-20T09:20:24;13.57;;;2.00;;
64282;SDS011;50497;50.720;-2.084;2022-11-20T09:25:16;10.63;;;2.33;;
64282;SDS011;50497;50.720;-2.084;2022-11-20T09:27:42;16.20;;;2.40;;
64282;SDS011;50497;50.720;-2.084;2022-11-20T09:30:09;19.30;;;2.50;;
64282;SDS011;50497;50.720;-2.084;2022-11-20T09:32:36;13.07;;;2.30;;
64282;SDS011;50497;50.720;-2.084;2022-11-20T09:35:03;17.92;;;2.88;;
64282;SDS011;50497;50.720;-2.084;2022-11-20T09:37:29;16.67;;;3.20;;
64282;SDS011;50497;50.720;-2.084;2022-11-20T09:40:01;15.27;;;2.53;;
64282;SDS011;50497;50.720;-2.084;2022-11-20T09:42:36;15.88;;;3.03;;
64282;SDS011;50497;50.720;-2.084;2022-11-20T09:45:15;21.02;;;2.80;;
64282;SDS011;50497;50.720;-2.084;2022-11-20T09:50:40;18.63;;;2.53;;
64282;SDS011;50497;50.720;-2.084;2022-11-20T09:53:11;15.32;;;3.08;;
64282;SDS011;50497;50.720;-2.084;2022-11-20T09:55:41;17.65;;;2.75;;
64282;SDS011;50497;50.720;-2.084;2022-11-20T09:58:08;16.50;;;3.13;;
64282;SDS011;50497;50.720;-2.084;2022-11-20T10:00:49;18.92;;;3.10;;
64282;SDS011;50497;50.720;-2.084;2022-11-20T10:03:20;16.63;;;3.05;;
64282;SDS011;50497;50.720;-2.084;2022-11-20T10:05:57;15.05;;;3.17;;
64282;SDS011;50497;50.720;-2.084;2022-11-20T10:17:00;15.23;;;2.40;;
64282;SDS011;50497;50.720;-2.084;2022-11-20T10:22:04;15.25;;;2.95;;
64282;SDS011;50497;50.720;-2.084;2022-11-20T10:25:11;14.60;;;2.53;;
64282;SDS011;50497;50.720;-2.084;2022-11-20T10:32:48;13.60;;;2.30;;
64282;SDS011;50497;50.720;-2.084;2022-11-20T10:35:33;16.08;;;2.80;;
64282;SDS011;50497;50.720;-2.084;2022-11-20T10:38:05;15.07;;;2.30;;
64282;SDS011;50497;50.720;-2.084;2022-11-20T10:40:40;14.88;;;2.47;;
64282;SDS011;50497;50.720;-2.084;2022-11-20T10:43:18;15.63;;;2.05;;
64282;SDS011;50497;50.720;-2.084;2022-11-20T10:46:05;14.18;;;2.45;;
64282;SDS011;50497;50.720;-2.084;2022-11-20T10:48:35;11.27;;;2.40;;
64282;SDS011;50497;50.720;-2.084;2022-11-20T10:51:09;13.02;;;2.22;;
64282;SDS011;50497;50.720;-2.084;2022-11-20T10:53:47;13.07;;;2.70;;
64282;SDS011;50497;50.720;-2.084;2022-11-20T11:02:31;12.10;;;2.30;;
64282;SDS011;50497;50.720;-2.084;2022-11-20T11:05:00;12.77;;;1.95;;
64282;SDS011;50497;50.720;-2.084;2022-11-20T11:07:38;12.25;;;2.63;;
64282;SDS011;50497;50.720;-2.084;2022-11-20T11:10:52;13.27;;;2.40;;
64282;SDS011;50497;50.720;-2.084;2022-11-20T11:13:22;13.15;;;2.20;;
64282;SDS011;50497;50.720;-2.084;2022-11-20T11:15:52;10.40;;;2.47;;
64282;SDS011;50497;50.720;-2.084;2022-11-20T11:18:31;16.23;;;2.30;;
64282;SDS011;50497;50.720;-2.084;2022-11-20T11:21:02;19.30;;;2.88;;
64282;SDS011;50497;50.720;-2.084;2022-11-20T11:23:34;15.20;;;2.65;;
64282;SDS011;50497;50.720;-2.084;2022-11-20T11:26:03;16.70;;;2.72;;
64282;SDS011;50497;50.720;-2.084;2022-11-20T11:28:31;10.25;;;1.80;;
64282;SDS011;50497;50.720;-2.084;2022-11-20T11:30:56;11.57;;;2.05;;
64282;SDS011;50497;50.720;-2.084;2022-11-20T11:33:26;14.20;;;2.17;;
64282;SDS011;50497;50.720;-2.084;2022-11-20T11:35:54;9.85;;;2.17;;
64282;SDS011;50497;50.720;-2.084;2022-11-20T11:38:27;10.05;;;2.17;;
64282;SDS011;50497;50.720;-2.084;2022-11-20T11:41:00;16.65;;;2.30;;
64282;SDS011;50497;50.720;-2.084;2022-11-20T11:43:26;16.63;;;2.25;;
64282;SDS011;50497;50.720;-2.084;2022-11-20T11:48:57;11.02;;;2.00;;
64282;SDS011;50497;50.720;-2.084;2022-11-20T11:54:24;10.38;;;2.22;;
64282;SDS011;50497;50.720;-2.084;2022-11-20T11:56:58;17.05;;;2.45;;
64282;SDS011;50497;50.720;-2.084;2022-11-20T11:59:33;14.40;;;2.33;;
64282;SDS011;50497;50.720;-2.084;2022-11-20T12:02:14;10.52;;;2.20;;
64282;SDS011;50497;50.720;-2.084;2022-11-20T12:04:52;12.60;;;2.33;;
64282;SDS011;50497;50.720;-2.084;2022-11-20T12:07:27;11.10;;;2.33;;
64282;SDS011;50497;50.720;-2.084;2022-11-20T12:10:02;10.82;;;2.15;;
64282;SDS011;50497;50.720;-2.084;2022-11-20T12:14:58;10.75;;;2.08;;
64282;SDS011;50497;50.720;-2.084;2022-11-20T12:17:23;11.68;;;1.92;;
64282;SDS011;50497;50.720;-2.084;2022-11-20T12:19:49;11.63;;;1.90;;
64282;SDS011;50497;50.720;-2.084;2022-11-20T12:30:29;16.33;;;2.17;;
64282;SDS011;50497;50.720;-2.084;2022-11-20T12:43:44;16.13;;;2.33;;
64282;SDS011;50497;50.720;-2.084;2022-11-20T12:46:42;9.82;;;2.00;;
64282;SDS011;50497;50.720;-2.084;2022-11-20T12:49:17;11.65;;;2.30;;
64282;SDS011;50497;50.720;-2.084;2022-11-20T12:57:21;8.30;;;2.15;;
64282;SDS011;50497;50.720;-2.084;2022-11-20T13:00:18;13.20;;;2.03;;
64282;SDS011;50497;50.720;-2.084;2022-11-20T13:06:05;8.80;;;1.70;;
64282;SDS011;50497;50.720;-2.084;2022-11-20T13:08:39;10.25;;;1.85;;
64282;SDS011;50497;50.720;-2.084;2022-11-20T13:11:14;11.88;;;2.42;;
64282;SDS011;50497;50.720;-2.084;2022-11-20T13:13:54;11.85;;;2.33;;
64282;SDS011;50497;50.720;-2.084;2022-11-20T13:19:17;14.63;;;2.45;;
64282;SDS011;50497;50.720;-2.084;2022-11-20T13:21:48;10.38;;;2.00;;
64282;SDS011;50497;50.720;-2.084;2022-11-20T13:24:29;12.23;;;2.10;;
64282;SDS011;50497;50.720;-2.084;2022-11-20T13:27:00;11.45;;;1.77;;
64282;SDS011;50497;50.720;-2.084;2022-11-20T13:29:30;13.40;;;2.25;;
64282;SDS011;50497;50.720;-2.084;2022-11-20T13:32:04;12.85;;;1.90;;
64282;SDS011;50497;50.720;-2.084;2022-11-20T13:34:30;14.90;;;2.00;;
64282;SDS011;50497;50.720;-2.084;2022-11-20T13:36:57;10.05;;;1.88;;
64282;SDS011;50497;50.720;-2.084;2022-11-20T13:39:35;10.50;;;1.42;;
64282;SDS011;50497;50.720;-2.084;2022-11-20T13:42:25;10.32;;;1.60;;
64282;SDS011;50497;50.720;-2.084;2022-11-20T13:45:00;11.30;;;1.60;;
64282;SDS011;50497;50.720;-2.084;2022-11-20T13:47:33;12.05;;;1.90;;
64282;SDS011;50497;50.720;-2.084;2022-11-20T13:50:02;9.23;;;1.83;;
64282;SDS011;50497;50.720;-2.084;2022-11-20T13:55:05;8.68;;;1.98;;
64282;SDS011;50497;50.720;-2.084;2022-11-20T13:57:48;9.13;;;1.48;;
64282;SDS011;50497;50.720;-2.084;2022-11-20T14:00:22;6.25;;;1.23;;
64282;SDS011;50497;50.720;-2.084;2022-11-20T14:05:26;5.05;;;1.20;;
64282;SDS011;50497;50.720;-2.084;2022-11-20T14:07:53;7.32;;;1.10;;
64282;SDS011;50497;50.720;-2.084;2022-11-20T14:10:24;3.97;;;1.10;;
64282;SDS011;50497;50.720;-2.084;2022-11-20T14:12:55;5.80;;;1.20;;
64282;SDS011;50497;50.720;-2.084;2022-11-20T14:15:26;6.00;;;1.27;;
64282;SDS011;50497;50.720;-2.084;2022-11-20T14:17:56;5.43;;;1.17;;
64282;SDS011;50497;50.720;-2.084;2022-11-20T14:20:24;6.45;;;1.67;;
64282;SDS011;50497;50.720;-2.084;2022-11-20T14:22:52;5.43;;;0.90;;
64282;SDS011;50497;50.720;-2.084;2022-11-20T14:25:25;4.30;;;0.85;;
64282;SDS011;50497;50.720;-2.084;2022-11-20T14:28:00;4.88;;;1.10;;
64282;SDS011;50497;50.720;-2.084;2022-11-20T14:30:28;3.08;;;0.82;;
64282;SDS011;50497;50.720;-2.084;2022-11-20T14:33:01;5.07;;;0.93;;
64282;SDS011;50497;50.720;-2.084;2022-11-20T14:35:29;5.53;;;1.20;;
64282;SDS011;50497;50.720;-2.084;2022-11-20T14:37:59;5.47;;;1.38;;
64282;SDS011;50497;50.720;-2.084;2022-11-20T14:40:33;5.07;;;1.00;;
64282;SDS011;50497;50.720;-2.084;2022-11-20T14:43:25;6.00;;;1.00;;
64282;SDS011;50497;50.720;-2.084;2022-11-20T14:45:56;5.18;;;0.93;;
64282;SDS011;50497;50.720;-2.084;2022-11-20T14:48:33;5.57;;;0.85;;
64282;SDS011;50497;50.720;-2.084;2022-11-20T14:51:04;4.38;;;1.20;;
64282;SDS011;50497;50.720;-2.084;2022-11-20T14:53:30;6.50;;;1.08;;
64282;SDS011;50497;50.720;-2.084;2022-11-20T14:56:00;4.32;;;1.00;;
64282;SDS011;50497;50.720;-2.084;2022-11-20T14:58:28;5.80;;;1.10;;
64282;SDS011;50497;50.720;-2.084;2022-11-20T15:01:05;4.97;;;0.90;;
64282;SDS011;50497;50.720;-2.084;2022-11-20T15:03:39;4.10;;;1.00;;
64282;SDS011;50497;50.720;-2.084;2022-11-20T15:06:06;5.60;;;1.55;;
64282;SDS011;50497;50.720;-2.084;2022-11-20T15:08:35;6.55;;;1.08;;
64282;SDS011;50497;50.720;-2.084;2022-11-20T15:11:01;5.50;;;1.50;;
64282;SDS011;50497;50.720;-2.084;2022-11-20T15:13:36;4.25;;;0.90;;
64282;SDS011;50497;50.720;-2.084;2022-11-20T15:16:15;4.35;;;1.33;;
64282;SDS011;50497;50.720;-2.084;2022-11-20T15:18:43;7.72;;;1.30;;
64282;SDS011;50497;50.720;-2.084;2022-11-20T15:21:13;6.53;;;1.73;;
64282;SDS011;50497;50.720;-2.084;2022-11-20T15:23:40;6.28;;;1.30;;
64282;SDS011;50497;50.720;-2.084;2022-11-20T15:26:07;4.40;;;1.10;;
64282;SDS011;50497;50.720;-2.084;2022-11-20T15:28:34;5.55;;;1.33;;
64282;SDS011;50497;50.720;-2.084;2022-11-20T15:31:06;8.95;;;3.22;;
64282;SDS011;50497;50.720;-2.084;2022-11-20T15:33:34;6.35;;;1.23;;
64282;SDS011;50497;50.720;-2.084;2022-11-20T15:35:59;7.03;;;1.70;;
64282;SDS011;50497;50.720;-2.084;2022-11-20T15:38:25;8.57;;;1.40;;
64282;SDS011;50497;50.720;-2.084;2022-11-20T15:40:51;9.60;;;2.70;;
64282;SDS011;50497;50.720;-2.084;2022-11-20T15:43:17;6.35;;;1.42;;
64282;SDS011;50497;50.720;-2.084;2022-11-20T15:45:43;7.93;;;1.52;;
64282;SDS011;50497;50.720;-2.084;2022-11-20T15:48:21;9.63;;;2.33;;
64282;SDS011;50497;50.720;-2.084;2022-11-20T15:53:38;6.85;;;1.77;;
64282;SDS011;50497;50.720;-2.084;2022-11-20T15:56:05;10.55;;;1.90;;
64282;SDS011;50497;50.720;-2.084;2022-11-20T15:58:31;13.30;;;5.03;;
64282;SDS011;50497;50.720;-2.084;2022-11-20T16:00:56;9.07;;;2.20;;
64282;SDS011;50497;50.720;-2.084;2022-11-20T16:03:22;16.30;;;7.15;;
64282;SDS011;50497;50.720;-2.084;2022-11-20T16:05:48;8.15;;;1.90;;
64282;SDS011;50497;50.720;-2.084;2022-11-20T16:08:13;7.40;;;1.55;;
64282;SDS011;50497;50.720;-2.084;2022-11-20T16:10:40;11.60;;;3.45;;
64282;SDS011;50497;50.720;-2.084;2022-11-20T16:13:12;7.63;;;1.85;;
64282;SDS011;50497;50.720;-2.084;2022-11-20T16:15:58;7.97;;;1.50;;
64282;SDS011;50497;50.720;-2.084;2022-11-20T16:18:26;8.05;;;1.60;;